createdAt,value
2023-02-11T00:01:21.648Z,35.69
2023-02-11T00:03:48.914Z,35.85
2023-02-11T00:06:16.189Z,35.44
2023-02-11T00:08:43.447Z,34.02
2023-02-11T00:11:13.568Z,34.89
2023-02-11T00:13:42.648Z,34.13
2023-02-11T00:16:12.368Z,34.80
2023-02-11T00:18:40.092Z,34.77
2023-02-11T00:21:08.414Z,34.26
2023-02-11T00:23:36.508Z,34.70
2023-02-11T00:26:05.243Z,34.43
2023-02-11T00:28:32.481Z,35.24
2023-02-11T00:31:01.411Z,34.38
2023-02-11T00:33:28.668Z,33.36
2023-02-11T00:35:56.309Z,33.67
2023-02-11T00:38:23.486Z,33.53
2023-02-11T00:40:50.604Z,33.15
2023-02-11T00:43:17.666Z,33.90
2023-02-11T00:45:44.890Z,33.29
2023-02-11T00:48:13.625Z,33.69
2023-02-11T00:50:40.885Z,34.18
2023-02-11T00:53:08.301Z,34.54
2023-02-11T00:55:35.550Z,33.34
2023-02-11T00:58:02.744Z,34.19
2023-02-11T01:00:29.886Z,34.39
2023-02-11T01:02:57.066Z,34.22
2023-02-11T01:05:25.856Z,33.48
2023-02-11T01:07:53.090Z,33.70
2023-02-11T01:10:20.372Z,34.22
2023-02-11T01:12:48.055Z,34.30
2023-02-11T01:15:17.601Z,33.77
2023-02-11T01:17:45.102Z,33.42
2023-02-11T01:20:16.226Z,34.08
2023-02-11T01:22:44.954Z,34.00
2023-02-11T01:25:12.056Z,33.58
2023-02-11T01:27:39.435Z,34.42
2023-02-11T01:30:08.733Z,34.35
2023-02-11T01:32:36.578Z,33.44
2023-02-11T01:35:04.496Z,33.26
2023-02-11T01:37:33.908Z,33.14
2023-02-11T01:40:04.460Z,33.03
2023-02-11T01:42:32.659Z,33.67
2023-02-11T01:45:22.472Z,32.74
2023-02-11T01:47:49.578Z,31.85
2023-02-11T01:50:17.175Z,32.40
2023-02-11T01:52:45.176Z,31.75
2023-02-11T01:55:14.658Z,32.05
2023-02-11T01:57:47.657Z,30.54
2023-02-11T02:00:20.442Z,30.27
2023-02-11T02:02:54.969Z,30.72
2023-02-11T02:05:35.396Z,31.16
2023-02-11T02:08:11.800Z,30.87
2023-02-11T02:10:43.281Z,30.00
2023-02-11T02:13:11.114Z,31.33
2023-02-11T02:15:40.585Z,31.26
2023-02-11T02:18:33.553Z,30.98
2023-02-11T02:21:33.912Z,30.77
2023-02-11T02:24:28.797Z,30.04
2023-02-11T02:27:37.978Z,30.30
2023-02-11T02:30:59.464Z,31.12
2023-02-11T02:33:48.811Z,30.93
2023-02-11T02:36:23.985Z,30.53
2023-02-11T02:38:58.243Z,31.09
2023-02-11T02:41:30.974Z,33.29
2023-02-11T02:43:58.851Z,31.11
2023-02-11T02:46:28.442Z,30.96
2023-02-11T02:48:58.354Z,31.45
2023-02-11T02:51:57.209Z,30.12
2023-02-11T02:54:39.113Z,29.42
2023-02-11T02:57:20.794Z,29.14
2023-02-11T03:00:16.796Z,28.90
2023-02-11T03:03:01.855Z,27.86
2023-02-11T03:05:40.321Z,28.21
2023-02-11T03:08:15.234Z,28.99
2023-02-11T03:10:47.176Z,27.22
2023-02-11T03:13:18.193Z,27.75
2023-02-11T03:15:51.268Z,28.54
2023-02-11T03:18:23.774Z,28.31
2023-02-11T03:20:56.824Z,29.11
2023-02-11T03:23:31.033Z,28.14
2023-02-11T03:26:03.633Z,28.73
2023-02-11T03:28:38.655Z,29.92
2023-02-11T03:31:14.948Z,30.55
2023-02-11T03:33:55.178Z,31.43
2023-02-11T03:36:32.952Z,30.27
2023-02-11T03:39:04.262Z,30.63
2023-02-11T03:41:35.619Z,30.27
2023-02-11T03:44:06.314Z,29.13
2023-02-11T03:46:39.291Z,28.97
2023-02-11T03:49:13.928Z,27.58
2023-02-11T03:51:44.335Z,29.06
2023-02-11T03:54:18.303Z,28.86
2023-02-11T03:56:52.596Z,28.80
2023-02-11T03:59:19.759Z,29.73
2023-02-11T04:01:48.244Z,29.42
2023-02-11T04:04:15.537Z,29.85
2023-02-11T04:06:44.321Z,30.53
2023-02-11T04:09:11.998Z,29.32
2023-02-11T04:11:39.194Z,27.68
2023-02-11T04:14:06.396Z,27.87
2023-02-11T04:16:33.603Z,29.57
2023-02-11T04:19:00.782Z,28.56
2023-02-11T04:21:27.954Z,29.72
2023-02-11T04:23:56.713Z,28.94
2023-02-11T04:26:24.435Z,28.97
2023-02-11T04:28:51.574Z,29.29
2023-02-11T04:31:18.780Z,29.93
2023-02-11T04:33:46.086Z,28.42
2023-02-11T04:36:13.638Z,29.21
2023-02-11T04:38:40.958Z,28.69
2023-02-11T04:41:09.618Z,27.76
2023-02-11T04:43:36.882Z,27.85
2023-02-11T04:46:04.333Z,28.58
2023-02-11T04:48:31.577Z,29.36
2023-02-11T04:50:58.776Z,29.56
2023-02-11T04:53:26.260Z,29.90
2023-02-11T04:55:53.520Z,28.84
2023-02-11T04:58:22.301Z,27.02
2023-02-11T05:00:49.396Z,28.03
2023-02-11T05:03:16.924Z,28.49
2023-02-11T05:05:44.377Z,27.49
2023-02-11T05:08:11.588Z,26.73
2023-02-11T05:10:38.859Z,26.01
2023-02-11T05:13:06.021Z,25.87
2023-02-11T05:15:34.634Z,26.77
2023-02-11T05:18:01.875Z,27.55
2023-02-11T05:20:29.123Z,25.94
2023-02-11T05:22:56.235Z,25.57
2023-02-11T05:25:23.399Z,25.07
2023-02-11T05:27:50.542Z,26.30
2023-02-11T05:30:17.894Z,26.89
2023-02-11T05:32:46.536Z,26.49
2023-02-11T05:35:13.897Z,27.45
2023-02-11T05:37:41.195Z,27.05
2023-02-11T05:40:09.537Z,27.42
2023-02-11T05:42:36.678Z,27.70
2023-02-11T05:45:04.519Z,27.10
2023-02-11T05:47:31.860Z,27.20
2023-02-11T05:50:00.580Z,27.33
2023-02-11T05:52:27.676Z,26.58
2023-02-11T05:54:54.877Z,26.37
2023-02-11T05:57:22.076Z,27.32
2023-02-11T05:59:49.261Z,27.29
2023-02-11T06:02:16.431Z,27.48
2023-02-11T06:04:43.694Z,25.82
2023-02-11T06:07:12.193Z,26.33
2023-02-11T06:09:39.421Z,26.47
2023-02-11T06:12:06.959Z,26.45
2023-02-11T06:14:34.352Z,26.08
2023-02-11T06:17:02.030Z,26.19
2023-02-11T06:19:29.195Z,25.82
2023-02-11T06:21:56.745Z,24.51
2023-02-11T06:24:48.056Z,26.21
2023-02-11T06:27:12.721Z,27.67
2023-02-11T06:29:39.919Z,27.31
2023-02-11T06:32:08.656Z,25.72
2023-02-11T06:34:39.195Z,25.52
2023-02-11T06:37:06.776Z,25.44
2023-02-11T06:39:35.499Z,25.73
2023-02-11T06:42:02.638Z,26.81
2023-02-11T06:44:29.828Z,24.95
2023-02-11T06:46:57.037Z,25.08
2023-02-11T06:49:24.183Z,25.27
2023-02-11T06:51:51.258Z,24.47
2023-02-11T06:54:18.557Z,25.84
2023-02-11T06:56:47.198Z,26.00
2023-02-11T06:59:16.711Z,25.48
2023-02-11T07:01:43.956Z,26.37
2023-02-11T07:04:11.136Z,26.99
2023-02-11T07:06:38.296Z,25.48
2023-02-11T07:09:05.805Z,25.46
2023-02-11T07:11:33.677Z,26.02
2023-02-11T07:14:04.582Z,26.25
2023-02-11T07:16:32.887Z,25.72
2023-02-11T07:19:00.093Z,24.95
2023-02-11T07:21:27.336Z,25.01
2023-02-11T07:23:55.375Z,26.19
2023-02-11T07:26:24.381Z,26.03
2023-02-11T07:28:52.856Z,25.95
2023-02-11T07:31:25.078Z,25.10
2023-02-11T07:33:54.259Z,25.47
2023-02-11T07:36:22.850Z,25.86
2023-02-11T07:38:50.518Z,19.71
2023-02-11T07:41:20.649Z,19.08
2023-02-11T07:43:48.136Z,17.87
2023-02-11T07:46:17.768Z,17.92
2023-02-11T07:48:46.726Z,22.41
2023-02-11T07:51:17.061Z,25.24
2023-02-11T07:53:45.299Z,25.49
2023-02-11T07:56:14.316Z,26.09
2023-02-11T07:58:42.158Z,26.00
2023-02-11T08:01:11.714Z,25.01
2023-02-11T08:03:40.321Z,25.62
2023-02-11T08:06:11.897Z,26.54
2023-02-11T08:08:39.856Z,26.16
2023-02-11T08:11:08.377Z,26.26
2023-02-11T08:13:36.594Z,27.81
2023-02-11T08:16:05.137Z,26.28
2023-02-11T08:18:33.319Z,26.84
2023-02-11T08:21:05.631Z,28.73
2023-02-11T08:23:35.732Z,28.18
2023-02-11T08:26:03.753Z,26.97
2023-02-11T08:28:32.419Z,26.96
2023-02-11T08:31:05.776Z,28.10
2023-02-11T08:33:33.550Z,28.43
2023-02-11T08:36:00.950Z,28.48
2023-02-11T08:38:28.114Z,29.36
2023-02-11T08:40:59.550Z,29.32
2023-02-11T08:43:26.650Z,30.54
2023-02-11T08:45:53.962Z,31.21
2023-02-11T08:48:21.450Z,33.53
2023-02-11T08:50:48.551Z,32.17
2023-02-11T08:53:15.751Z,34.14
2023-02-11T08:55:49.226Z,34.60
2023-02-11T08:58:19.182Z,35.49
2023-02-11T09:00:46.927Z,38.45
2023-02-11T09:03:15.057Z,30.16
2023-02-11T09:05:43.038Z,21.95
2023-02-11T09:08:10.792Z,23.93
2023-02-11T09:10:38.873Z,25.57
2023-02-11T09:13:06.795Z,23.14
2023-02-11T09:15:35.629Z,25.28
2023-02-11T09:18:03.638Z,26.92
2023-02-11T09:20:31.535Z,25.89
2023-02-11T09:22:59.432Z,26.30
2023-02-11T09:25:27.403Z,26.63
2023-02-11T09:27:54.635Z,27.70
2023-02-11T09:30:22.233Z,28.83
2023-02-11T09:32:51.205Z,27.95
2023-02-11T09:35:18.479Z,31.14
2023-02-11T09:37:45.856Z,34.63
2023-02-11T09:40:14.633Z,33.70
2023-02-11T09:42:48.873Z,33.32
2023-02-11T09:45:21.713Z,32.60
2023-02-11T09:47:55.769Z,34.44
2023-02-11T09:50:28.013Z,35.23
2023-02-11T09:53:01.062Z,34.96
2023-02-11T09:55:31.521Z,34.79
2023-02-11T09:57:58.994Z,34.75
2023-02-11T10:00:35.306Z,34.90
2023-02-11T10:03:42.719Z,35.38
2023-02-11T10:06:27.681Z,32.07
2023-02-11T10:09:07.240Z,35.90
2023-02-11T10:11:47.480Z,34.48
2023-02-11T10:14:36.617Z,33.39
2023-02-11T10:17:19.419Z,34.93
2023-02-11T10:20:18.659Z,35.33
2023-02-11T10:22:49.685Z,36.08
2023-02-11T10:25:24.037Z,35.89
2023-02-11T10:27:54.841Z,35.58
2023-02-11T10:30:31.559Z,36.30
2023-02-11T10:33:07.037Z,37.58
2023-02-11T10:35:35.889Z,37.11
2023-02-11T10:38:03.165Z,34.91
2023-02-11T10:40:32.380Z,35.84
2023-02-11T10:43:04.260Z,35.58
2023-02-11T10:45:36.570Z,35.19
2023-02-11T10:48:06.715Z,35.79
2023-02-11T10:50:37.021Z,34.71
2023-02-11T10:53:17.477Z,35.39
2023-02-11T10:55:52.615Z,35.60
2023-02-11T10:58:26.798Z,35.74
2023-02-11T11:00:57.181Z,36.87
2023-02-11T11:03:27.349Z,37.95
2023-02-11T11:06:00.118Z,35.26
2023-02-11T11:08:40.839Z,35.93
2023-02-11T11:11:10.718Z,35.85
2023-02-11T11:13:39.900Z,36.07
2023-02-11T11:16:23.013Z,37.30
2023-02-11T11:18:53.161Z,36.50
2023-02-11T11:21:24.817Z,37.35
2023-02-11T11:23:57.244Z,37.81
2023-02-11T11:26:27.821Z,35.48
2023-02-11T11:29:00.141Z,36.10
2023-02-11T11:31:33.685Z,35.66
2023-02-11T11:34:15.681Z,38.34
2023-02-11T11:36:45.077Z,37.43
2023-02-11T11:39:24.116Z,37.01
2023-02-11T11:41:55.213Z,37.14
2023-02-11T11:44:28.962Z,36.23
2023-02-11T11:47:27.114Z,37.13
2023-02-11T11:50:26.071Z,36.93
2023-02-11T11:53:01.060Z,36.51
2023-02-11T11:55:35.603Z,37.33
2023-02-11T11:58:02.928Z,36.96
2023-02-11T12:00:40.755Z,38.88
2023-02-11T12:03:33.934Z,36.85
2023-02-11T12:06:18.611Z,37.63
2023-02-11T12:09:03.574Z,37.14
2023-02-11T12:11:43.251Z,38.44
2023-02-11T12:14:24.333Z,37.62
2023-02-11T12:17:03.232Z,36.96
2023-02-11T12:20:03.026Z,37.70
2023-02-11T12:22:50.010Z,37.12
2023-02-11T12:25:28.350Z,36.51
2023-02-11T12:28:10.940Z,38.22
2023-02-11T12:30:54.411Z,37.41
2023-02-11T12:33:41.015Z,38.48
2023-02-11T12:36:21.094Z,38.07
2023-02-11T12:39:10.654Z,37.82
2023-02-11T12:42:16.877Z,35.32
2023-02-11T12:45:03.407Z,34.92
2023-02-11T12:47:45.593Z,35.33
2023-02-11T12:50:25.063Z,36.60
2023-02-11T12:53:10.743Z,34.61
2023-02-11T12:55:46.013Z,34.41
2023-02-11T12:58:27.328Z,33.79
2023-02-11T13:01:04.901Z,34.00
2023-02-11T13:03:43.053Z,34.62
2023-02-11T13:06:15.526Z,33.48
2023-02-11T13:08:48.509Z,33.32
2023-02-11T13:11:21.527Z,33.18
2023-02-11T13:13:57.507Z,33.94
2023-02-11T13:16:36.411Z,37.23
2023-02-11T13:19:18.809Z,36.91
2023-02-11T13:22:13.781Z,35.24
2023-02-11T13:24:47.253Z,36.39
2023-02-11T13:27:29.017Z,34.92
2023-02-11T13:30:27.627Z,36.29
2023-02-11T13:33:19.996Z,33.70
2023-02-11T13:36:10.024Z,34.26
2023-02-11T13:38:38.290Z,35.58
2023-02-11T13:41:15.268Z,35.54
2023-02-11T13:43:43.951Z,35.89
2023-02-11T13:46:15.266Z,36.10
2023-02-11T13:48:49.116Z,25.65
2023-02-11T13:51:19.784Z,22.00
2023-02-11T13:53:51.843Z,22.96
2023-02-11T13:56:30.500Z,29.06
2023-02-11T13:59:01.853Z,35.56
2023-02-11T14:01:58.989Z,30.81
2023-02-11T14:04:27.843Z,36.89
2023-02-11T14:07:25.706Z,35.16
2023-02-11T14:09:53.043Z,36.14
2023-02-11T14:12:34.908Z,36.67
2023-02-11T14:15:21.752Z,36.23
2023-02-11T14:17:48.993Z,36.86
2023-02-11T14:20:41.286Z,37.02
2023-02-11T14:23:26.650Z,36.61
2023-02-11T14:26:06.088Z,35.49
2023-02-11T14:28:33.737Z,36.21
2023-02-11T14:31:10.430Z,35.89
2023-02-11T14:34:09.106Z,36.72
2023-02-11T14:37:03.217Z,37.33
2023-02-11T14:39:48.507Z,36.95
2023-02-11T14:42:20.326Z,35.88
2023-02-11T14:44:50.890Z,36.38
2023-02-11T14:47:21.441Z,36.35
2023-02-11T14:49:49.972Z,37.71
2023-02-11T14:52:27.593Z,36.26
2023-02-11T14:55:06.554Z,36.98
2023-02-11T14:57:33.871Z,36.22
2023-02-11T15:00:05.953Z,36.09
2023-02-11T15:02:36.613Z,37.56
2023-02-11T15:05:23.328Z,36.06
2023-02-11T15:07:55.970Z,37.54
2023-02-11T15:10:30.858Z,37.52
2023-02-11T15:13:00.831Z,38.16
2023-02-11T15:15:29.289Z,38.22
2023-02-11T15:18:01.462Z,38.31
2023-02-11T15:20:32.093Z,38.74
2023-02-11T15:23:06.089Z,38.40
2023-02-11T15:25:34.369Z,38.36
2023-02-11T15:28:01.713Z,38.12
2023-02-11T15:30:32.828Z,38.51
2023-02-11T15:33:02.008Z,38.88
2023-02-11T15:35:31.300Z,39.11
2023-02-11T15:38:01.173Z,37.85
2023-02-11T15:40:31.488Z,39.22
2023-02-11T15:43:00.405Z,38.66
2023-02-11T15:45:31.696Z,38.19
2023-02-11T15:48:13.998Z,38.44
2023-02-11T15:50:43.315Z,39.31
2023-02-11T15:53:25.949Z,39.04
2023-02-11T15:56:03.528Z,40.25
2023-02-11T15:58:36.529Z,38.99
2023-02-11T16:01:04.440Z,39.68
2023-02-11T16:03:31.859Z,38.33
2023-02-11T16:06:21.096Z,39.78
2023-02-11T16:09:02.505Z,41.53
2023-02-11T16:11:31.810Z,41.86
2023-02-11T16:14:00.710Z,39.43
2023-02-11T16:16:31.380Z,39.46
2023-02-11T16:19:05.192Z,39.49
2023-02-11T16:21:36.691Z,38.89
2023-02-11T16:24:08.292Z,38.99
2023-02-11T16:26:39.467Z,40.08
2023-02-11T16:29:11.445Z,39.81
2023-02-11T16:31:41.566Z,38.66
2023-02-11T16:34:14.810Z,37.53
2023-02-11T16:36:42.148Z,38.37
2023-02-11T16:39:12.644Z,38.70
2023-02-11T16:41:39.865Z,38.98
2023-02-11T16:44:07.446Z,39.40
2023-02-11T16:46:36.656Z,40.66
2023-02-11T16:49:10.491Z,40.21
2023-02-11T16:51:40.959Z,41.19
2023-02-11T16:54:15.545Z,40.02
2023-02-11T16:56:43.848Z,40.93
2023-02-11T16:59:11.084Z,41.26
2023-02-11T17:01:41.025Z,40.72
2023-02-11T17:04:15.649Z,40.52
2023-02-11T17:06:42.845Z,40.96
2023-02-11T17:09:15.585Z,40.94
2023-02-11T17:11:44.242Z,41.20
2023-02-11T17:14:11.451Z,37.70
2023-02-11T17:16:38.576Z,38.09
2023-02-11T17:19:06.234Z,36.71
2023-02-11T17:21:33.610Z,38.66
2023-02-11T17:24:00.739Z,38.00
2023-02-11T17:26:27.903Z,37.91
2023-02-11T17:28:56.579Z,37.43
2023-02-11T17:31:23.804Z,38.38
2023-02-11T17:33:50.968Z,37.99
2023-02-11T17:36:18.140Z,38.58
2023-02-11T17:38:45.391Z,38.82
2023-02-11T17:41:12.776Z,39.22
2023-02-11T17:43:39.961Z,39.91
2023-02-11T17:46:09.503Z,38.93
2023-02-11T17:48:37.681Z,36.91
2023-02-11T17:51:05.560Z,36.59
2023-02-11T17:53:32.706Z,38.22
2023-02-11T17:56:02.240Z,37.36
2023-02-11T17:58:29.441Z,36.92
2023-02-11T18:00:59.178Z,36.79
2023-02-11T18:03:28.061Z,37.73
2023-02-11T18:06:00.463Z,39.04
2023-02-11T18:08:27.676Z,40.56
2023-02-11T18:10:54.881Z,40.02
2023-02-11T18:13:22.161Z,41.18
2023-02-11T18:15:49.642Z,40.23
2023-02-11T18:18:17.060Z,40.18
2023-02-11T18:20:45.920Z,40.99
2023-02-11T18:23:13.511Z,41.18
2023-02-11T18:25:42.020Z,40.66
2023-02-11T18:28:09.404Z,41.24
2023-02-11T18:30:36.590Z,41.92
2023-02-11T18:33:03.984Z,42.34
2023-02-11T18:35:31.164Z,43.17
2023-02-11T18:37:59.807Z,45.44
2023-02-11T18:40:27.325Z,44.59
2023-02-11T18:42:54.526Z,43.88
2023-02-11T18:45:21.746Z,43.93
2023-02-11T18:47:48.847Z,44.97
2023-02-11T18:50:16.147Z,44.73
2023-02-11T18:52:43.369Z,43.34
2023-02-11T18:55:12.120Z,43.63
2023-02-11T18:57:39.427Z,43.85
2023-02-11T19:00:08.097Z,43.90
2023-02-11T19:02:35.391Z,43.64
2023-02-11T19:05:03.764Z,44.72
2023-02-11T19:07:30.866Z,44.84
2023-02-11T19:09:58.027Z,44.58
2023-02-11T19:12:26.810Z,44.86
2023-02-11T19:14:54.083Z,45.10
2023-02-11T19:17:21.286Z,44.89
2023-02-11T19:19:48.469Z,45.37
2023-02-11T19:22:15.665Z,45.13
2023-02-11T19:24:42.790Z,44.34
2023-02-11T19:27:10.525Z,45.21
2023-02-11T19:29:39.249Z,44.38
2023-02-11T19:32:07.236Z,44.08
2023-02-11T19:34:47.591Z,44.57
2023-02-11T19:37:15.827Z,43.98
2023-02-11T19:39:44.418Z,44.64
2023-02-11T19:42:12.129Z,44.02
2023-02-11T19:44:40.968Z,44.32
2023-02-11T19:47:08.275Z,43.37
2023-02-11T19:49:35.528Z,44.37
2023-02-11T19:52:02.769Z,43.94
2023-02-11T19:54:30.544Z,44.36
2023-02-11T19:56:58.224Z,45.92
2023-02-11T19:59:25.465Z,45.54
2023-02-11T20:01:54.149Z,44.65
2023-02-11T20:04:21.485Z,44.74
2023-02-11T20:06:48.725Z,43.36
2023-02-11T20:09:16.224Z,43.72
2023-02-11T20:11:43.440Z,44.70
2023-02-11T20:14:13.603Z,44.98
2023-02-11T20:16:48.705Z,45.06
2023-02-11T20:19:22.145Z,45.26
2023-02-11T20:21:52.685Z,45.15
2023-02-11T20:24:20.706Z,44.54
2023-02-11T20:26:49.072Z,44.08
2023-02-11T20:29:17.334Z,43.93
2023-02-11T20:31:45.371Z,43.92
2023-02-11T20:34:12.895Z,44.28
2023-02-11T20:36:42.029Z,45.03
2023-02-11T20:39:11.458Z,45.35
2023-02-11T20:41:38.899Z,44.66
2023-02-11T20:44:08.707Z,45.37
2023-02-11T20:46:38.955Z,45.43
2023-02-11T20:49:06.439Z,47.02
2023-02-11T20:51:34.730Z,46.33
2023-02-11T20:54:04.093Z,45.33
2023-02-11T20:56:33.561Z,46.00
2023-02-11T20:59:02.047Z,45.77
2023-02-11T21:01:32.083Z,45.80
2023-02-11T21:04:01.775Z,46.97
2023-02-11T21:06:36.041Z,45.38
2023-02-11T21:09:05.965Z,43.90
2023-02-11T21:11:33.369Z,42.44
2023-02-11T21:14:01.403Z,43.23
2023-02-11T21:16:29.396Z,43.47
2023-02-11T21:18:56.795Z,43.53
2023-02-11T21:21:24.549Z,43.77
2023-02-11T21:23:51.806Z,43.76
2023-02-11T21:26:20.365Z,43.93
2023-02-11T21:28:47.846Z,43.02
2023-02-11T21:31:20.855Z,42.64
2023-02-11T21:33:48.521Z,41.24
2023-02-11T21:36:15.800Z,41.70
2023-02-11T21:38:43.327Z,41.90
2023-02-11T21:41:10.573Z,41.96
2023-02-11T21:43:39.206Z,40.46
2023-02-11T21:46:12.762Z,40.45
2023-02-11T21:48:40.052Z,39.64
2023-02-11T21:51:09.691Z,40.39
2023-02-11T21:53:36.867Z,39.40
2023-02-11T21:56:06.188Z,39.73
2023-02-11T21:58:33.493Z,40.93
2023-02-11T22:01:02.327Z,40.54
2023-02-11T22:03:29.651Z,40.10
2023-02-11T22:05:57.467Z,39.70
2023-02-11T22:08:24.940Z,39.23
2023-02-11T22:10:52.271Z,38.79
2023-02-11T22:13:19.691Z,38.43
2023-02-11T22:15:58.174Z,36.77
2023-02-11T22:18:27.336Z,36.52
2023-02-11T22:20:59.330Z,37.50
2023-02-11T22:23:26.577Z,36.68
2023-02-11T22:25:54.105Z,37.59
2023-02-11T22:28:22.044Z,37.48
2023-02-11T22:30:53.643Z,36.93
2023-02-11T22:33:21.205Z,36.38
2023-02-11T22:35:50.184Z,35.16
2023-02-11T22:38:17.463Z,35.31
2023-02-11T22:40:45.167Z,34.36
2023-02-11T22:43:12.322Z,34.02
2023-02-11T22:45:40.085Z,33.17
2023-02-11T22:48:07.380Z,33.26
2023-02-11T22:50:35.160Z,33.53
2023-02-11T22:53:03.903Z,33.11
2023-02-11T22:55:31.070Z,32.48
2023-02-11T23:01:11.992Z,31.41
2023-02-11T23:03:39.999Z,31.25
2023-02-11T23:06:26.814Z,32.52
2023-02-11T23:08:56.944Z,32.09
2023-02-11T23:11:31.381Z,32.24
2023-02-11T23:13:59.525Z,32.41
2023-02-11T23:16:29.927Z,33.68
2023-02-11T23:19:00.174Z,32.47
2023-02-11T23:21:30.420Z,33.12
2023-02-11T23:24:01.940Z,33.26
2023-02-11T23:26:29.435Z,29.30
2023-02-11T23:28:58.333Z,29.68
2023-02-11T23:31:28.401Z,33.29
2023-02-11T23:33:56.221Z,33.64
2023-02-11T23:36:23.808Z,34.05
2023-02-11T23:38:51.116Z,32.89
2023-02-11T23:41:20.252Z,33.74
2023-02-11T23:44:02.384Z,34.58
2023-02-11T23:46:30.470Z,34.60
2023-02-11T23:48:57.750Z,36.09
2023-02-11T23:51:25.107Z,35.39
2023-02-11T23:53:52.640Z,34.08
2023-02-11T23:56:25.312Z,32.30
2023-02-11T23:58:55.746Z,32.83
